Time;durP1;ratioP1;P1;durP2;ratioP2;P2;SDS_P1;SDS_P2;PMS_P1;PMS_P2;Temp;Humidity;BMP_temperature;BMP_pressure;BME280_temperature;BME280_humidity;BME280_pressure;Samples;Min_cycle;Max_cycle;Signal;HPM_P1;HPM_P2
2021/01/25 00:02:17;;;;;;;17.20;8.57;;;;;;;9.52;65.33;92991.31;5095262;28;20446;-81
2021/01/25 00:04:43;;;;;;;15.50;8.57;;;;;;;9.55;65.17;93007.53;5094788;28;20457;-81
2021/01/25 00:07:09;;;;;;;16.23;8.70;;;;;;;9.50;65.24;92998.50;5095048;28;20442;-81
2021/01/25 00:09:36;;;;;;;28.33;9.23;;;;;;;9.49;65.95;92991.66;5094738;28;20437;-81
2021/01/25 00:12:02;;;;;;;30.53;11.47;;;;;;;9.55;65.62;93006.69;5094758;28;20498;-81
2021/01/25 00:14:29;;;;;;;13.13;6.50;;;;;;;9.59;65.84;92977.38;5095224;28;20468;-81
2021/01/25 00:16:56;;;;;;;11.57;6.80;;;;;;;9.38;66.28;92943.13;5094844;28;20441;-82
2021/01/25 00:19:22;;;;;;;24.23;10.60;;;;;;;9.48;66.29;92974.31;5094763;28;20844;-81
2021/01/25 00:21:48;;;;;;;13.60;6.57;;;;;;;9.52;65.91;92965.94;5094629;28;20794;-81
2021/01/25 00:24:15;;;;;;;6.37;4.70;;;;;;;9.56;65.38;92955.97;5094774;28;20486;-80
2021/01/25 00:26:41;;;;;;;10.60;5.50;;;;;;;9.45;65.76;92958.94;5094527;28;20455;-81
2021/01/25 00:29:07;;;;;;;8.80;6.07;;;;;;;9.51;66.23;92947.78;5094442;28;20970;-79
2021/01/25 00:31:34;;;;;;;22.03;10.60;;;;;;;9.58;65.57;92954.00;5094112;28;20529;-81
2021/01/25 00:34:01;;;;;;;18.10;8.73;;;;;;;9.55;65.73;92967.44;5094897;28;20784;-81
2021/01/25 00:36:27;;;;;;;26.97;11.80;;;;;;;9.53;66.18;92972.81;5094570;28;20471;-80
2021/01/25 00:38:53;;;;;;;21.87;8.87;;;;;;;9.34;66.49;92951.47;5094579;28;20445;-80
2021/01/25 00:41:20;;;;;;;11.17;7.53;;;;;;;9.14;67.55;92949.25;5094167;28;20457;-81
2021/01/25 00:43:46;;;;;;;7.17;4.93;;;;;;;9.17;67.83;92969.84;5094528;28;21056;-81
2021/01/25 00:46:14;;;;;;;4.37;3.97;;;;;;;9.03;68.79;92940.97;5094399;28;20456;-80
2021/01/25 00:48:40;;;;;;;5.07;4.57;;;;;;;8.97;68.86;92945.09;5094107;28;20771;-80
2021/01/25 00:51:07;;;;;;;4.07;3.77;;;;;;;8.83;69.55;92946.56;5075144;28;21124;-80
2021/01/25 00:53:34;;;;;;;6.50;3.97;;;;;;;8.69;70.84;92952.50;5094139;28;20501;-81
2021/01/25 00:56:00;;;;;;;4.00;3.60;;;;;;;8.71;71.16;92945.31;5094151;28;20585;-81
2021/01/25 00:58:26;;;;;;;3.10;2.90;;;;;;;8.57;71.27;92946.78;5093833;28;20448;-81
2021/01/25 01:00:52;;;;;;;3.17;2.87;;;;;;;8.46;72.24;92944.53;5093992;28;20458;-81
2021/01/25 01:03:19;;;;;;;15.43;6.50;;;;;;;8.46;72.24;92928.84;5093940;28;20470;-81
2021/01/25 01:05:45;;;;;;;5.07;3.33;;;;;;;8.38;72.81;92923.59;5093703;28;20441;-81
2021/01/25 01:08:12;;;;;;;6.40;4.40;;;;;;;8.43;72.61;92921.34;5093867;28;20442;-82
2021/01/25 01:10:39;;;;;;;5.07;4.50;;;;;;;8.50;72.49;92917.06;5093969;28;20486;-80
2021/01/25 01:13:05;;;;;;;4.30;3.00;;;;;;;8.52;72.70;92938.63;5094091;28;21213;-81
2021/01/25 01:15:31;;;;;;;6.23;3.83;;;;;;;8.65;72.54;92910.16;5093774;28;20443;-81
2021/01/25 01:17:58;;;;;;;5.73;3.47;;;;;;;8.77;72.48;92912.44;5093584;28;20845;-81
2021/01/25 01:20:25;;;;;;;7.87;4.87;;;;;;;8.91;71.84;92935.28;5093625;28;20448;-80
2021/01/25 01:22:51;;;;;;;4.07;3.33;;;;;;;8.92;71.83;92931.66;5093393;28;20474;-82
2021/01/25 01:25:18;;;;;;;3.50;3.20;;;;;;;9.03;71.61;92936.56;5093391;28;20448;-82
2021/01/25 01:27:45;;;;;;;4.27;3.83;;;;;;;9.13;70.98;92944.19;5093805;28;20437;-81
2021/01/25 01:30:12;;;;;;;5.03;4.17;;;;;;;9.20;69.83;92925.03;5057814;28;20981;-81
2021/01/25 01:32:39;;;;;;;5.27;4.50;;;;;;;9.26;70.21;92918.31;5091785;28;20438;-81
2021/01/25 01:35:06;;;;;;;6.43;3.80;;;;;;;9.38;69.49;92937.88;5093432;28;20450;-81
2021/01/25 01:37:33;;;;;;;6.60;4.63;;;;;;;9.34;69.56;92925.31;5093286;28;20467;-81
2021/01/25 01:40:00;;;;;;;8.70;6.20;;;;;;;9.29;69.68;92944.16;5093128;28;20453;-80
2021/01/25 01:42:27;;;;;;;5.43;4.07;;;;;;;9.37;69.35;92919.72;5093310;28;20498;-81
2021/01/25 01:44:54;;;;;;;10.60;6.17;;;;;;;9.36;69.80;92931.19;5092868;28;20441;-81
2021/01/25 01:47:21;;;;;;;9.30;6.33;;;;;;;9.37;69.92;92915.31;5093229;28;20446;-80
2021/01/25 01:49:48;;;;;;;17.30;7.70;;;;;;;9.38;69.43;92922.19;5093210;28;20923;-81
2021/01/25 01:52:15;;;;;;;11.40;5.70;;;;;;;9.42;69.62;92933.13;5074375;28;20449;-79
2021/01/25 01:54:42;;;;;;;15.70;8.40;;;;;;;9.53;69.00;92941.38;5057656;28;20429;-82
2021/01/25 01:57:08;;;;;;;14.93;8.63;;;;;;;9.51;69.28;92913.75;5057657;28;20456;-81
2021/01/25 01:59:36;;;;;;;6.37;5.33;;;;;;;9.24;70.12;92894.09;5074087;28;20810;-81
2021/01/25 02:02:02;;;;;;;5.53;4.80;;;;;;;9.37;70.17;92940.66;5093113;28;20445;-82
2021/01/25 02:04:29;;;;;;;4.60;3.47;;;;;;;9.35;69.99;92921.72;5093227;28;20449;-82
2021/01/25 02:06:57;;;;;;;6.50;4.30;;;;;;;9.34;70.19;92923.50;5093362;28;20450;-81
2021/01/25 02:09:25;;;;;;;8.13;4.50;;;;;;;9.35;70.66;92947.88;5092789;28;20507;-80
2021/01/25 02:11:52;;;;;;;12.97;6.97;;;;;;;9.42;70.16;92938.34;5092768;28;21065;-80
2021/01/25 02:14:20;;;;;;;14.50;6.90;;;;;;;9.44;70.45;92954.69;5093044;28;20449;-81
2021/01/25 02:16:47;;;;;;;12.00;7.47;;;;;;;9.51;69.89;92976.59;5093333;28;20451;-82
2021/01/25 02:19:22;;;;;;;12.43;6.60;;;;;;;9.55;69.90;92954.34;5092978;28;20836;-81
2021/01/25 02:21:56;;;;;;;8.73;6.43;;;;;;;9.59;69.79;92948.59;5092857;28;20447;-81
2021/01/25 02:24:32;;;;;;;9.33;6.80;;;;;;;9.71;69.29;92958.66;5092955;28;20792;-82
2021/01/25 02:27:32;;;;;;;10.63;5.60;;;;;;;9.79;69.50;92983.00;5092849;28;20506;-81
2021/01/25 02:30:00;;;;;;;9.87;5.57;;;;;;;9.72;68.54;92940.16;5093105;28;20480;-80
2021/01/25 02:32:27;;;;;;;6.70;5.93;;;;;;;9.58;69.37;92954.81;5092781;28;20944;-82
2021/01/25 02:34:55;;;;;;;9.27;6.50;;;;;;;9.65;69.34;92964.59;5090533;28;20452;-81
2021/01/25 02:37:22;;;;;;;14.07;5.70;;;;;;;9.65;69.44;92944.47;5093489;28;20441;-82
2021/01/25 02:39:50;;;;;;;7.40;4.57;;;;;;;9.30;69.29;92938.75;5092556;28;20440;-81
2021/01/25 02:42:17;;;;;;;7.90;4.77;;;;;;;9.41;69.10;92941.97;5099252;28;20448;-81
2021/01/25 02:44:45;;;;;;;7.63;5.00;;;;;;;9.48;69.43;92958.59;5105440;28;20949;-82
2021/01/25 02:47:12;;;;;;;11.80;6.83;;;;;;;9.42;69.68;92941.78;5093183;28;20803;-81
2021/01/25 02:49:40;;;;;;;9.83;6.40;;;;;;;9.44;69.30;92962.56;5092829;28;20443;-82
2021/01/25 02:52:06;;;;;;;11.03;5.37;;;;;;;9.47;69.61;92951.75;5093306;28;20909;-81
2021/01/25 02:54:33;;;;;;;10.30;5.93;;;;;;;9.48;69.48;92963.84;5092825;28;20454;-82
2021/01/25 02:57:00;;;;;;;10.40;5.50;;;;;;;9.49;69.47;92960.22;5097288;28;20751;-81
2021/01/25 02:59:27;;;;;;;7.60;6.23;;;;;;;9.49;69.84;92994.28;5077303;28;20512;-81
2021/01/25 03:01:54;;;;;;;9.17;8.27;;;;;;;9.49;69.01;92987.22;5096562;28;20461;-81
2021/01/25 03:04:22;;;;;;;8.70;7.00;;;;;;;9.46;69.33;92987.56;5096394;28;20490;-81
2021/01/25 03:06:49;;;;;;;11.43;7.30;;;;;;;9.49;69.62;92994.28;5096029;28;20870;-80
2021/01/25 03:09:15;;;;;;;5.40;4.90;;;;;;;9.28;70.97;92994.84;5096454;28;20500;-81
2021/01/25 03:11:42;;;;;;;9.60;6.50;;;;;;;9.32;71.30;92989.13;5096447;28;20866;-81
2021/01/25 03:14:09;;;;;;;10.13;6.37;;;;;;;9.22;72.58;92991.09;5096305;28;20438;-82
2021/01/25 03:16:35;;;;;;;7.43;6.10;;;;;;;9.03;73.83;92991.50;5096069;28;20869;-82
2021/01/25 03:19:03;;;;;;;6.47;5.13;;;;;;;9.13;74.11;92989.50;5096322;28;20462;-81
2021/01/25 03:21:32;;;;;;;6.70;4.70;;;;;;;9.19;75.00;93001.91;5095759;28;20455;-82
2021/01/25 03:23:58;;;;;;;5.63;3.40;;;;;;;9.20;76.99;92987.00;5095415;28;20468;-81
2021/01/25 03:26:25;;;;;;;6.13;4.80;;;;;;;9.26;79.11;92995.03;5096092;28;20444;-81
2021/01/25 03:28:51;;;;;;;8.33;3.73;;;;;;;9.26;81.61;92981.94;5095878;28;20442;-81
2021/01/25 03:31:18;;;;;;;6.20;3.80;;;;;;;9.24;82.59;92985.69;5095622;28;20517;-81
2021/01/25 03:33:44;;;;;;;4.00;3.60;;;;;;;9.30;83.66;92987.66;5095619;28;20453;-81
2021/01/25 03:36:11;;;;;;;3.87;3.27;;;;;;;9.40;84.12;92982.22;5095641;28;20954;-81
2021/01/25 03:38:38;;;;;;;4.30;3.13;;;;;;;9.49;84.42;92986.41;5095530;28;20444;-82
2021/01/25 03:41:04;;;;;;;3.60;3.30;;;;;;;9.57;84.64;92983.78;5095653;28;20461;-80
2021/01/25 03:43:30;;;;;;;3.53;3.00;;;;;;;9.58;80.26;92985.41;5076607;28;20448;-81
2021/01/25 03:45:57;;;;;;;5.63;3.83;;;;;;;9.65;81.33;92990.78;5095214;28;20445;-81
2021/01/25 03:48:23;;;;;;;10.30;7.40;;;;;;;9.48;82.85;92974.31;5059715;28;20929;-81
2021/01/25 03:50:49;;;;;;;7.23;6.07;;;;;;;9.44;83.29;92979.06;5076376;28;20485;-81
2021/01/25 03:53:16;;;;;;;11.37;6.70;;;;;;;9.30;85.67;92966.72;5095278;28;21222;-80
2021/01/25 03:55:45;;;;;;;2.90;2.13;;;;;;;9.07;85.55;92953.53;5095453;28;20436;-82
2021/01/25 03:58:12;;;;;;;12.07;6.20;;;;;;;8.99;88.73;92953.56;5095577;28;20496;-81
2021/01/25 04:00:38;;;;;;;3.00;2.20;;;;;;;8.81;90.04;92953.78;5094911;28;20920;-82
2021/01/25 04:03:05;;;;;;;6.63;4.40;;;;;;;8.89;90.76;92964.22;5095466;28;20452;-81
2021/01/25 04:05:31;;;;;;;3.10;2.73;;;;;;;8.92;89.69;92960.44;5094839;28;20449;-81
2021/01/25 04:07:57;;;;;;;3.67;2.27;;;;;;;9.00;89.24;92976.13;5094576;28;20453;-81
2021/01/25 04:10:24;;;;;;;4.63;3.43;;;;;;;9.13;89.67;92992.09;5095216;28;20481;-80
2021/01/25 04:12:51;;;;;;;15.00;10.47;;;;;;;9.25;88.94;92984.69;5094748;28;20442;-81
2021/01/25 04:15:17;;;;;;;2.60;2.30;;;;;;;9.30;88.52;92991.09;5094842;28;20449;-81
2021/01/25 04:17:44;;;;;;;6.70;5.77;;;;;;;9.17;89.14;93001.25;5094651;28;20462;-81
2021/01/25 04:20:11;;;;;;;13.60;8.77;;;;;;;9.06;89.90;93000.81;5094691;28;20513;-81
2021/01/25 04:22:37;;;;;;;2.40;2.10;;;;;;;8.94;89.19;93008.16;5058829;28;20472;-81
2021/01/25 04:25:04;;;;;;;2.37;2.17;;;;;;;9.12;87.75;93002.75;5094789;28;20471;-82
2021/01/25 04:27:32;;;;;;;1.57;1.47;;;;;;;9.20;85.48;93014.00;5094581;28;20521;-82
2021/01/25 04:29:58;;;;;;;2.67;2.37;;;;;;;9.19;85.21;93009.75;5094603;28;20509;-81
2021/01/25 04:32:25;;;;;;;1.73;1.47;;;;;;;9.31;84.43;93010.22;5041754;28;20438;-81
2021/01/25 04:34:51;;;;;;;2.07;1.87;;;;;;;9.32;83.85;93002.19;5094340;28;20501;-81
2021/01/25 04:37:18;;;;;;;3.97;3.67;;;;;;;9.20;84.81;92985.22;5094352;28;20446;-81
2021/01/25 04:39:44;;;;;;;1.77;1.67;;;;;;;9.17;84.65;92962.00;5094177;28;20446;-82
2021/01/25 04:42:11;;;;;;;1.70;1.60;;;;;;;9.18;84.55;92960.19;5094388;28;20445;-81
2021/01/25 04:44:39;;;;;;;1.40;1.30;;;;;;;9.24;82.34;92977.84;5094348;28;20498;-84
2021/01/25 04:47:06;;;;;;;1.83;1.43;;;;;;;9.39;81.20;92985.81;5094436;28;20448;-81
2021/01/25 04:49:35;;;;;;;1.17;1.07;;;;;;;9.53;78.89;93009.47;5094120;28;20449;-81
2021/01/25 04:52:02;;;;;;;1.00;0.80;;;;;;;9.62;78.77;93003.22;5094048;28;21014;-82
2021/01/25 04:54:29;;;;;;;1.13;0.97;;;;;;;9.55;79.16;92999.66;5058416;28;20433;-84
2021/01/25 04:56:59;;;;;;;1.20;0.90;;;;;;;9.50;78.75;93009.00;5093988;28;20460;-82
2021/01/25 04:59:27;;;;;;;1.10;1.00;;;;;;;9.54;79.08;93008.50;5075034;28;20520;-83
2021/01/25 05:01:55;;;;;;;1.53;1.07;;;;;;;9.64;77.94;93005.69;5094445;28;20447;-82
2021/01/25 05:04:21;;;;;;;1.20;1.10;;;;;;;9.61;78.50;93006.00;5093738;28;20531;-82
2021/01/25 05:06:47;;;;;;;3.93;3.17;;;;;;;9.64;77.83;93018.75;5058213;28;20489;-82
2021/01/25 05:09:14;;;;;;;3.63;3.33;;;;;;;9.56;78.37;93005.72;5093840;28;20461;-83
2021/01/25 05:11:40;;;;;;;2.00;1.80;;;;;;;9.54;78.26;93021.59;5093705;28;20480;-83
2021/01/25 05:14:07;;;;;;;2.60;1.60;;;;;;;9.40;78.94;93003.97;5093569;28;20450;-83
2021/01/25 05:16:34;;;;;;;2.50;1.60;;;;;;;9.40;79.30;92993.50;5093476;28;20442;-83
2021/01/25 05:19:04;;;;;;;1.13;1.03;;;;;;;9.36;78.98;92994.81;5057260;28;20462;-83
2021/01/25 05:21:41;;;;;;;1.00;0.90;;;;;;;9.32;79.75;93004.00;5093511;28;20567;-83
2021/01/25 05:24:10;;;;;;;1.50;1.40;;;;;;;9.35;79.91;93000.22;5093373;28;20525;-82
2021/01/25 05:26:40;;;;;;;1.20;1.00;;;;;;;9.39;79.48;92968.31;5093321;28;20441;-81
2021/01/25 05:29:06;;;;;;;1.20;1.10;;;;;;;9.42;79.83;92980.22;5093515;28;20452;-83
2021/01/25 05:31:33;;;;;;;1.33;1.23;;;;;;;9.41;77.19;92989.06;5097716;28;20613;-82
2021/01/25 05:33:59;;;;;;;1.70;1.20;;;;;;;9.58;77.37;92990.66;5093645;28;20445;-82
2021/01/25 05:36:29;;;;;;;1.30;1.20;;;;;;;9.54;78.25;93010.28;5099937;28;20445;-82
2021/01/25 05:38:55;;;;;;;2.30;1.60;;;;;;;9.64;78.76;93029.25;5102341;28;20442;-81
2021/01/25 05:41:23;;;;;;;2.03;1.57;;;;;;;9.72;78.88;93050.16;5093183;28;20450;-82
2021/01/25 05:43:50;;;;;;;2.20;1.97;;;;;;;9.76;78.24;93056.69;5093339;28;20442;-82
2021/01/25 05:46:19;;;;;;;4.17;3.33;;;;;;;9.78;78.88;93073.03;5093405;28;20825;-81
2021/01/25 05:48:56;;;;;;;5.50;5.00;;;;;;;9.88;79.04;93068.44;5093150;28;20446;-82
2021/01/25 05:51:23;;;;;;;4.30;2.80;;;;;;;9.88;78.40;93067.63;5093048;28;20486;-82
2021/01/25 05:53:50;;;;;;;4.07;3.67;;;;;;;9.94;78.51;93075.59;5092971;28;20912;-81
2021/01/25 05:56:17;;;;;;;4.27;3.00;;;;;;;10.01;79.23;93069.66;5093101;28;20917;-81
2021/01/25 05:58:43;;;;;;;3.37;2.87;;;;;;;9.96;77.22;93074.63;5093472;28;20438;-82
2021/01/25 06:01:10;;;;;;;5.83;4.90;;;;;;;9.77;74.83;93068.78;5093356;28;20455;-80
2021/01/25 06:03:38;;;;;;;2.23;1.80;;;;;;;9.88;73.99;93078.91;5093041;28;20441;-82
2021/01/25 06:06:20;;;;;;;1.20;1.10;;;;;;;9.98;71.70;93086.56;5093117;28;20780;-82
2021/01/25 06:08:57;;;;;;;1.30;1.13;;;;;;;10.07;71.99;93084.69;5093212;28;20452;-82
2021/01/25 06:11:27;;;;;;;3.03;1.70;;;;;;;10.12;73.75;93104.19;5093105;28;20547;-81
2021/01/25 06:13:55;;;;;;;1.80;1.43;;;;;;;10.04;74.37;93113.88;5092681;28;20507;-82
2021/01/25 06:16:23;;;;;;;1.73;1.63;;;;;;;10.15;75.16;93109.09;5073913;28;20445;-82
2021/01/25 06:18:50;;;;;;;1.43;1.30;;;;;;;10.20;74.39;93122.53;5092514;28;20495;-82
2021/01/25 06:21:21;;;;;;;1.40;1.00;;;;;;;10.27;73.72;93116.59;5093245;28;20448;-82
2021/01/25 06:23:48;;;;;;;1.90;1.80;;;;;;;10.22;74.67;93109.25;5092543;28;20489;-81
2021/01/25 06:26:15;;;;;;;6.90;4.93;;;;;;;10.09;74.25;93114.16;5092860;28;20442;-81
2021/01/25 06:28:42;;;;;;;4.33;3.30;;;;;;;10.06;75.79;93117.13;5092787;28;20444;-82
2021/01/25 06:31:09;;;;;;;3.23;2.70;;;;;;;9.93;75.95;93126.38;5076244;28;20984;-82
2021/01/25 06:33:39;;;;;;;6.40;5.73;;;;;;;9.86;76.62;93125.41;5096631;28;20929;-82
2021/01/25 06:36:07;;;;;;;1.20;1.10;;;;;;;9.98;75.92;93111.94;5096681;28;20482;-82
2021/01/25 06:38:35;;;;;;;1.97;1.60;;;;;;;9.98;75.43;93115.38;5096626;28;20456;-82
2021/01/25 06:41:09;;;;;;;10.33;6.67;;;;;;;9.85;76.69;93110.69;5096743;28;20449;-83
2021/01/25 06:43:38;;;;;;;1.70;1.60;;;;;;;9.81;76.27;93103.31;5044289;28;20444;-81
2021/01/25 06:46:04;;;;;;;7.07;4.50;;;;;;;10.01;76.20;93103.72;5096562;28;20440;-83
2021/01/25 06:48:31;;;;;;;6.40;4.63;;;;;;;10.08;76.59;93091.56;5096651;28;20486;-82
2021/01/25 06:51:00;;;;;;;2.50;2.30;;;;;;;10.03;77.02;93092.09;5096439;28;20489;-81
2021/01/25 06:53:28;;;;;;;1.60;1.50;;;;;;;10.02;78.06;93098.31;5096399;28;20454;-81
2021/01/25 06:55:58;;;;;;;1.93;1.73;;;;;;;9.97;78.47;93079.69;5096100;28;20450;-81
2021/01/25 06:58:28;;;;;;;2.30;1.30;;;;;;;9.92;73.68;93082.00;5096091;28;20450;-79
2021/01/25 07:00:55;;;;;;;1.27;1.17;;;;;;;10.04;74.29;93098.16;5096194;28;20442;-81
2021/01/25 07:03:22;;;;;;;2.00;1.80;;;;;;;10.09;76.22;93119.41;5096138;28;20445;-81
2021/01/25 07:05:50;;;;;;;6.97;4.20;;;;;;;10.22;76.17;93130.22;5096255;28;20520;-82
2021/01/25 07:08:18;;;;;;;3.70;3.07;;;;;;;10.30;77.41;93132.78;5095865;28;20855;-82
2021/01/25 07:10:50;;;;;;;7.40;3.03;;;;;;;10.03;79.44;93120.09;5095817;28;20490;-80
2021/01/25 07:13:17;;;;;;;13.00;7.57;;;;;;;9.77;78.28;93118.56;5095888;28;20925;-82
2021/01/25 07:15:44;;;;;;;6.40;5.67;;;;;;;9.77;74.20;93126.41;5077003;28;20822;-81
2021/01/25 07:18:12;;;;;;;1.57;1.47;;;;;;;9.98;71.28;93144.19;5096206;28;20438;-82
2021/01/25 07:20:38;;;;;;;6.00;4.23;;;;;;;10.09;77.27;93151.69;5043667;28;20438;-82
2021/01/25 07:23:07;;;;;;;10.83;6.10;;;;;;;10.15;77.97;93156.25;5095916;28;20968;-82
2021/01/25 07:25:34;;;;;;;4.73;3.43;;;;;;;10.10;77.96;93157.72;5076698;28;20503;-81
2021/01/25 07:28:03;;;;;;;4.93;3.30;;;;;;;10.02;79.42;93160.38;5095649;28;20446;-82
2021/01/25 07:30:32;;;;;;;21.90;11.50;;;;;;;10.01;80.16;93162.19;5095469;28;20992;-81
2021/01/25 07:33:02;;;;;;;23.30;11.57;;;;;;;9.94;79.58;93174.34;5095886;28;20445;-81
2021/01/25 07:35:29;;;;;;;9.50;6.30;;;;;;;9.98;79.48;93178.25;5095644;28;20446;-82
2021/01/25 07:37:56;;;;;;;9.60;5.80;;;;;;;10.08;79.42;93180.66;5095355;28;20461;-80
2021/01/25 07:40:23;;;;;;;11.83;7.17;;;;;;;10.01;81.20;93171.84;5095433;28;20454;-82
2021/01/25 07:42:50;;;;;;;6.80;4.37;;;;;;;9.96;82.47;93182.03;5094260;28;20507;-81
2021/01/25 07:45:16;;;;;;;6.73;4.47;;;;;;;9.89;81.71;93189.75;5095740;28;20799;-82
2021/01/25 07:47:45;;;;;;;9.80;7.20;;;;;;;10.00;81.39;93204.28;5095488;28;20445;-82
2021/01/25 07:50:12;;;;;;;16.77;10.00;;;;;;;9.89;82.09;93185.34;5095034;28;20456;-82
2021/01/25 07:52:39;;;;;;;15.00;10.43;;;;;;;9.72;85.39;93175.88;5095015;28;20938;-80
2021/01/25 07:55:13;;;;;;;5.20;4.03;;;;;;;9.71;76.56;93199.59;5095530;28;20449;-82
2021/01/25 07:57:40;;;;;;;4.97;3.90;;;;;;;9.81;77.49;93221.19;5095055;28;20477;-81
2021/01/25 08:00:18;;;;;;;7.23;4.73;;;;;;;9.75;80.29;93238.38;5095209;28;20445;-81
2021/01/25 08:02:49;;;;;;;7.30;5.03;;;;;;;9.39;81.58;93260.66;5094896;28;20451;-81
2021/01/25 08:05:16;;;;;;;11.40;5.50;;;;;;;8.73;80.41;93291.13;5095069;28;20932;-81
2021/01/25 08:07:45;;;;;;;12.70;5.90;;;;;;;7.83;81.16;93292.44;5095045;28;20568;-81
2021/01/25 08:10:14;;;;;;;4.00;3.20;;;;;;;7.22;80.95;93302.84;5094770;28;21002;-81
2021/01/25 08:12:43;;;;;;;6.33;3.30;;;;;;;6.55;79.83;93345.78;5075944;28;20471;-83
2021/01/25 08:15:14;;;;;;;7.03;2.47;;;;;;;5.82;81.29;93366.41;5094709;28;20959;-82
2021/01/25 08:17:46;;;;;;;8.30;3.43;;;;;;;5.52;82.86;93396.00;5094754;28;20466;-80
2021/01/25 08:20:16;;;;;;;5.90;3.90;;;;;;;5.38;82.12;93438.81;5094650;28;20440;-82
2021/01/25 08:22:48;;;;;;;5.70;3.53;;;;;;;5.39;82.93;93460.44;5094780;28;20474;-82
2021/01/25 08:25:18;;;;;;;3.50;3.17;;;;;;;5.21;82.16;93468.09;5094628;28;20493;-81
2021/01/25 08:27:53;;;;;;;2.40;2.20;;;;;;;5.01;82.11;93490.59;5094924;28;20447;-82
2021/01/25 08:30:22;;;;;;;5.30;3.00;;;;;;;4.92;81.82;93499.19;5112965;28;20430;-81
2021/01/25 08:32:52;;;;;;;5.40;3.30;;;;;;;4.81;81.26;93530.44;5100162;28;20442;-80
2021/01/25 08:35:31;;;;;;;3.10;2.30;;;;;;;4.81;82.70;93533.03;5095126;28;21121;-82
2021/01/25 08:38:17;;;;;;;10.47;3.33;;;;;;;4.67;82.83;93531.63;5095016;28;20871;-82
2021/01/25 08:40:44;;;;;;;2.83;2.33;;;;;;;4.42;83.86;93535.41;5094487;28;20447;-81
2021/01/25 08:43:22;;;;;;;3.77;2.50;;;;;;;4.13;85.02;93509.25;5094112;28;20448;-80
2021/01/25 08:45:50;;;;;;;4.60;3.00;;;;;;;3.91;85.86;93515.38;5094083;28;20455;-82
2021/01/25 08:48:26;;;;;;;8.00;4.20;;;;;;;3.75;87.36;93512.34;5093808;28;20447;-81
2021/01/25 08:50:53;;;;;;;4.07;2.90;;;;;;;3.67;88.68;93523.34;5094094;28;20897;-81
2021/01/25 08:53:30;;;;;;;6.50;3.80;;;;;;;3.62;89.17;93522.91;5093582;28;20856;-81
2021/01/25 08:55:57;;;;;;;4.33;3.00;;;;;;;3.68;88.20;93522.41;5094304;28;20522;-81
2021/01/25 08:58:31;;;;;;;5.73;2.30;;;;;;;3.57;88.88;93532.00;5093754;28;20876;-80
2021/01/25 09:00:59;;;;;;;4.90;2.47;;;;;;;3.46;88.79;93526.81;5074777;28;20504;-82
2021/01/25 09:03:25;;;;;;;3.80;3.50;;;;;;;3.48;90.23;93528.38;5093672;28;20446;-81
2021/01/25 09:05:53;;;;;;;3.37;3.07;;;;;;;3.49;89.44;93530.00;5093657;28;20810;-81
2021/01/25 09:08:21;;;;;;;5.33;3.60;;;;;;;3.50;88.30;93534.25;5093830;28;20448;-81
2021/01/25 09:10:47;;;;;;;2.77;2.50;;;;;;;3.54;87.26;93542.59;5057851;28;20479;-81
2021/01/25 09:13:15;;;;;;;2.57;2.37;;;;;;;3.58;87.80;93539.66;5093644;28;20530;-80
2021/01/25 09:15:41;;;;;;;5.47;2.73;;;;;;;3.63;86.04;93540.09;5093494;28;20489;-82
2021/01/25 09:18:11;;;;;;;4.50;2.83;;;;;;;3.66;85.03;93547.63;5093903;28;20448;-81
2021/01/25 09:20:37;;;;;;;2.63;2.40;;;;;;;3.81;84.32;93560.34;5093674;28;20764;-81
2021/01/25 09:23:04;;;;;;;2.47;2.00;;;;;;;3.90;83.31;93569.97;5093029;28;20487;-82
2021/01/25 09:25:32;;;;;;;2.10;2.00;;;;;;;4.06;83.34;93569.59;5093316;28;20447;-81
2021/01/25 09:27:58;;;;;;;4.17;3.60;;;;;;;4.16;82.12;93584.28;5093315;28;20447;-82
2021/01/25 09:30:26;;;;;;;6.20;2.73;;;;;;;4.19;81.31;93581.44;5093118;28;20439;-80
2021/01/25 09:32:52;;;;;;;2.33;2.13;;;;;;;4.31;80.47;93584.78;5024780;28;20907;-81
2021/01/25 09:35:21;;;;;;;3.63;2.67;;;;;;;4.30;79.84;93577.97;5093014;28;20458;-80
2021/01/25 09:37:47;;;;;;;4.17;2.97;;;;;;;4.42;79.34;93581.34;5057633;28;20439;-81
2021/01/25 09:40:16;;;;;;;2.70;2.17;;;;;;;4.54;78.91;93575.13;5093136;28;20450;-81
2021/01/25 09:42:42;;;;;;;2.20;2.10;;;;;;;4.70;78.23;93572.09;5093199;28;20451;-80
2021/01/25 09:45:12;;;;;;;4.23;2.80;;;;;;;4.83;77.43;93560.53;5093123;28;20447;-81
2021/01/25 09:47:38;;;;;;;1.80;1.70;;;;;;;4.95;76.32;93569.09;5093475;28;20448;-81
2021/01/25 09:50:10;;;;;;;5.53;3.70;;;;;;;5.07;75.59;93567.22;5093201;28;20808;-80
2021/01/25 09:52:37;;;;;;;3.67;2.90;;;;;;;5.11;74.61;93555.63;5093143;28;20496;-81
2021/01/25 09:55:04;;;;;;;7.72;4.90;;;;;;;5.19;74.47;93560.97;5092367;28;20432;-81
2021/01/25 09:57:31;;;;;;;8.83;5.63;;;;;;;5.37;73.66;93562.03;5093482;28;20201;-82
2021/01/25 09:59:57;;;;;;;6.20;4.27;;;;;;;5.39;72.60;93564.50;5093024;28;20443;-81
2021/01/25 10:02:23;;;;;;;4.03;2.40;;;;;;;5.45;73.70;93556.97;5093133;28;20528;-80
2021/01/25 10:04:49;;;;;;;2.80;2.60;;;;;;;5.51;73.34;93564.28;5093592;28;20838;-81
2021/01/25 10:07:16;;;;;;;5.67;3.53;;;;;;;5.61;73.30;93551.28;5097184;28;20439;-81
2021/01/25 10:09:43;;;;;;;3.00;2.63;;;;;;;5.70;72.82;93549.66;5097281;28;20451;-82
2021/01/25 10:12:10;;;;;;;4.60;3.10;;;;;;;5.78;71.45;93553.25;5096851;28;20482;-80
2021/01/25 10:14:36;;;;;;;3.03;2.73;;;;;;;5.90;71.38;93541.78;5097089;28;20832;-82
2021/01/25 10:17:02;;;;;;;5.20;2.80;;;;;;;6.08;71.89;93570.59;5094935;28;20492;-81
2021/01/25 10:19:29;;;;;;;3.00;2.20;;;;;;;6.27;69.46;93568.94;5097251;28;20447;-81
2021/01/25 10:21:55;;;;;;;2.20;2.00;;;;;;;6.40;69.16;93562.50;5097117;28;20439;-82
2021/01/25 10:24:21;;;;;;;2.00;1.90;;;;;;;6.62;68.92;93561.38;5096902;28;20466;-82
2021/01/25 10:26:48;;;;;;;3.47;2.93;;;;;;;6.76;66.87;93550.53;5096983;28;20440;-82
2021/01/25 10:29:15;;;;;;;4.30;3.10;;;;;;;6.95;66.01;93547.06;5096888;28;20451;-81
2021/01/25 10:31:41;;;;;;;1.83;1.73;;;;;;;7.15;67.02;93550.41;5096871;28;20515;-82
2021/01/25 10:34:07;;;;;;;2.23;2.03;;;;;;;7.28;65.17;93552.72;5096711;28;20466;-81
2021/01/25 10:36:33;;;;;;;2.10;1.90;;;;;;;7.38;65.62;93541.25;5096809;28;20938;-82
2021/01/25 10:39:00;;;;;;;2.37;2.17;;;;;;;7.43;65.68;93544.25;5096899;28;20439;-81
2021/01/25 10:41:26;;;;;;;2.33;2.13;;;;;;;7.52;65.29;93547.81;5060932;28;20840;-82
2021/01/25 10:43:53;;;;;;;3.63;3.23;;;;;;;7.52;65.62;93541.75;5077655;28;20443;-81
2021/01/25 10:46:20;;;;;;;6.50;4.93;;;;;;;7.46;66.24;93557.00;5096907;28;20443;-82
2021/01/25 10:48:46;;;;;;;3.40;2.47;;;;;;;7.48;65.33;93556.88;5060969;28;20525;-81
2021/01/25 10:51:12;;;;;;;4.30;3.33;;;;;;;7.41;65.93;93551.41;5043829;28;20486;-82
2021/01/25 10:53:39;;;;;;;2.77;2.27;;;;;;;7.22;66.75;93545.44;5096416;28;20454;-82
2021/01/25 10:56:05;;;;;;;2.80;2.50;;;;;;;7.18;67.37;93547.50;5096420;28;20444;-81
2021/01/25 10:58:32;;;;;;;7.60;2.90;;;;;;;6.94;67.74;93549.78;5096711;28;20448;-80
2021/01/25 11:00:59;;;;;;;3.40;3.10;;;;;;;6.88;68.53;93555.56;5096111;28;20781;-80
2021/01/25 11:03:25;;;;;;;9.30;3.97;;;;;;;6.69;69.30;93549.44;5096391;28;20790;-81
2021/01/25 11:05:51;;;;;;;4.93;3.97;;;;;;;6.64;68.99;93543.81;5095984;28;20443;-79
2021/01/25 11:08:18;;;;;;;7.50;4.77;;;;;;;6.59;69.62;93558.22;5096006;28;20517;-80
2021/01/25 11:10:45;;;;;;;5.30;4.07;;;;;;;6.63;70.71;93549.16;5096063;28;20535;-80
2021/01/25 11:13:11;;;;;;;11.77;5.97;;;;;;;6.77;70.71;93539.13;5096320;28;20435;-80
2021/01/25 11:15:37;;;;;;;9.30;5.47;;;;;;;6.85;69.80;93546.25;5096008;28;20445;-81
2021/01/25 11:18:05;;;;;;;12.93;5.23;;;;;;;6.83;69.79;93541.16;5095903;28;20454;-80
2021/01/25 11:20:31;;;;;;;4.60;3.40;;;;;;;6.92;69.06;93543.88;5096851;28;20462;-81
2021/01/25 11:22:57;;;;;;;3.93;3.47;;;;;;;6.99;69.37;93539.78;5092959;28;20475;-80
2021/01/25 11:25:24;;;;;;;5.03;3.47;;;;;;;6.82;67.52;93539.53;5102025;28;20435;-81
2021/01/25 11:27:50;;;;;;;4.43;3.30;;;;;;;6.75;68.42;93558.47;5095863;28;20431;-81
2021/01/25 11:30:17;;;;;;;5.60;4.27;;;;;;;6.80;69.17;93557.09;5096038;28;21044;-80
2021/01/25 11:32:44;;;;;;;6.43;3.23;;;;;;;6.73;67.94;93565.63;5076924;28;20475;-81
2021/01/25 11:35:11;;;;;;;9.00;4.20;;;;;;;6.72;68.17;93564.81;5095706;28;20455;-80
2021/01/25 11:37:38;;;;;;;8.73;3.73;;;;;;;6.73;68.14;93560.41;5095602;28;20774;-81
2021/01/25 11:40:06;;;;;;;11.10;3.57;;;;;;;6.69;66.59;93572.09;5095365;28;20795;-79
2021/01/25 11:42:32;;;;;;;6.90;4.50;;;;;;;6.77;67.46;93575.63;5093142;28;20436;-80